createdAt,value
2023-04-18T05:20:54.310Z,25.70
2023-04-18T05:31:08.331Z,26.60
2023-04-18T05:33:35.396Z,25.10
2023-04-18T05:36:04.774Z,26.70
2023-04-18T05:38:31.842Z,26.90
2023-04-18T05:40:59.889Z,26.50
2023-04-18T05:43:26.782Z,27.40
2023-04-18T05:45:54.290Z,26.50
2023-04-18T05:48:24.710Z,26.50
2023-04-18T05:50:51.825Z,26.00
2023-04-18T05:53:18.976Z,27.20
2023-04-18T05:55:47.996Z,27.70
2023-04-18T05:58:19.602Z,25.70
2023-04-18T06:39:11.470Z,25.90
2023-04-18T06:42:47.464Z,25.10
2023-04-18T06:45:14.066Z,26.20
2023-04-18T06:47:41.177Z,26.80
2023-04-18T06:50:08.858Z,26.70
2023-04-18T06:59:36.826Z,26.70
2023-04-18T07:02:03.767Z,26.30
2023-04-18T07:04:31.170Z,28.10
2023-04-18T07:06:58.413Z,27.90
2023-04-18T07:09:26.494Z,26.60
2023-04-18T07:11:53.620Z,27.10
2023-04-18T07:14:25.584Z,27.10
2023-04-18T07:16:53.161Z,28.80
2023-04-18T07:19:20.172Z,28.70
2023-04-18T07:21:48.516Z,28.10
2023-04-18T07:24:27.921Z,28.30
2023-04-18T07:26:55.252Z,27.70
2023-04-18T07:29:22.283Z,28.80
2023-04-18T07:31:49.386Z,28.20
2023-04-18T07:34:33.724Z,26.50
2023-04-18T10:10:21.220Z,18.30
2023-04-18T10:13:15.073Z,16.50
2023-04-18T11:14:54.153Z,16.10
2023-04-18T11:17:26.574Z,17.50
2023-04-18T11:20:05.677Z,18.00
2023-04-18T11:22:33.396Z,17.60
2023-04-18T11:25:01.034Z,18.50
2023-04-18T11:27:31.423Z,17.10
2023-04-18T11:29:58.197Z,15.00
2023-04-18T11:32:25.239Z,15.20
2023-04-18T11:34:53.456Z,15.70
2023-04-18T11:37:20.539Z,13.20
2023-04-18T11:39:47.289Z,13.10
2023-04-18T11:42:14.299Z,13.40
2023-04-18T11:44:45.271Z,12.60
2023-04-18T11:47:24.239Z,13.50
2023-04-18T11:50:06.077Z,13.70
2023-04-18T11:59:19.224Z,14.00
2023-04-18T12:01:58.891Z,14.20
2023-04-18T12:04:51.287Z,14.90
2023-04-18T12:07:35.683Z,13.80
2023-04-18T12:10:26.964Z,12.60
2023-04-18T12:12:55.657Z,12.70
2023-04-18T12:15:27.637Z,12.40
2023-04-18T12:18:02.986Z,12.80
2023-04-18T12:20:38.872Z,11.90
2023-04-18T12:23:08.240Z,11.60
2023-04-18T12:25:39.777Z,11.10
2023-04-18T12:28:15.121Z,11.90
2023-04-18T12:30:44.558Z,12.80
2023-04-18T12:33:11.013Z,11.40
2023-04-18T12:35:37.529Z,11.10
2023-04-18T14:14:12.454Z,13.80
2023-04-18T14:16:40.879Z,13.40
2023-04-18T14:19:08.254Z,13.90
2023-04-18T14:21:36.540Z,13.50
2023-04-18T14:24:05.010Z,13.30
2023-04-18T14:26:32.382Z,13.70
2023-04-18T14:29:00.002Z,13.70
2023-04-18T14:31:27.683Z,14.10
2023-04-18T14:33:54.677Z,14.00
2023-04-18T14:36:21.960Z,14.50
2023-04-18T14:38:49.668Z,13.60
2023-04-18T14:41:16.397Z,14.10
2023-04-18T14:43:43.098Z,14.00
2023-04-18T14:46:15.762Z,13.60
2023-04-18T14:48:45.097Z,14.40
2023-04-18T14:51:15.164Z,15.40
2023-04-18T14:53:42.188Z,14.40
2023-04-18T14:56:09.178Z,13.90
2023-04-18T16:54:29.671Z,11.50
2023-04-18T16:56:56.636Z,11.50
2023-04-18T17:16:31.177Z,9.70
2023-04-18T17:19:01.348Z,9.80
2023-04-18T17:21:31.200Z,10.40
2023-04-18T17:28:23.016Z,9.30
2023-04-18T17:34:07.243Z,9.20
2023-04-18T17:36:35.131Z,9.00
2023-04-18T17:39:05.762Z,8.70
2023-04-18T17:41:37.327Z,9.70
2023-04-18T17:44:07.787Z,9.20
2023-04-18T18:36:03.280Z,13.20
2023-04-18T18:38:37.598Z,13.30
2023-04-18T18:41:05.997Z,12.10
2023-04-18T18:43:38.967Z,11.50
2023-04-18T18:46:09.983Z,11.10
2023-04-18T18:48:38.696Z,11.60
2023-04-18T18:51:06.110Z,12.20
2023-04-18T18:53:34.011Z,11.80
2023-04-18T18:56:01.322Z,11.30
2023-04-18T18:58:28.864Z,12.00
2023-04-18T19:01:00.431Z,12.70
2023-04-18T21:08:27.224Z,9.80
2023-04-18T21:12:04.667Z,10.40
2023-04-18T21:15:35.060Z,9.50
2023-04-18T21:18:05.454Z,10.20
2023-04-18T21:20:38.536Z,10.00
2023-04-18T21:23:05.875Z,10.20
2023-04-18T21:25:35.584Z,10.10
2023-04-18T21:28:03.171Z,10.60
2023-04-18T21:30:31.093Z,10.30
2023-04-18T21:32:58.272Z,10.90
2023-04-18T21:35:51.978Z,10.60
2023-04-18T21:38:30.890Z,10.10
2023-04-18T21:41:40.580Z,10.60
2023-04-18T21:44:09.929Z,10.90
2023-04-18T21:46:39.264Z,10.30
2023-04-18T21:49:08.268Z,11.60
2023-04-18T21:51:34.927Z,11.70
2023-04-18T21:54:02.695Z,11.50
2023-04-18T21:56:35.586Z,11.40
2023-04-18T21:59:52.049Z,11.90
2023-04-18T22:02:19.320Z,11.50
2023-04-18T22:04:47.519Z,11.30
2023-04-18T22:07:18.047Z,12.10
2023-04-18T22:09:50.409Z,12.20
2023-04-18T22:12:17.792Z,12.10
2023-04-18T22:18:42.237Z,11.70
2023-04-18T22:22:32.047Z,11.40
2023-04-18T22:26:12.339Z,11.60
2023-04-18T22:37:29.562Z,11.30
2023-04-18T22:41:11.909Z,11.50
2023-04-18T22:45:09.511Z,11.70
2023-04-18T22:47:57.280Z,11.30
2023-04-18T22:50:24.233Z,11.70
2023-04-18T22:52:51.466Z,11.20
2023-04-18T22:55:21.038Z,11.00
2023-04-18T22:57:48.402Z,10.70
